Time;durP1;ratioP1;P1;durP2;ratioP2;P2;SDS_P1;SDS_P2;PMS_P1;PMS_P2;Temp;Humidity;BMP_temperature;BMP_pressure;BME280_temperature;BME280_humidity;BME280_pressure;Samples;Min_cycle;Max_cycle;Signal;HPM_P1;HPM_P2
2022/08/16 00:01:11;;;;;;;;;;;19.90;76.20;;;;;;4994733;28;19925;-77
2022/08/16 00:03:37;;;;;;;;;;;19.80;76.00;;;;;;5000362;28;19925;-77
2022/08/16 00:06:04;;;;;;;;;;;19.80;76.20;;;;;;5010918;28;20350;-74
2022/08/16 00:08:31;;;;;;;;;;;19.80;76.10;;;;;;5015654;28;20198;-77
2022/08/16 00:10:59;;;;;;;;;;;19.80;76.10;;;;;;5017205;28;20391;-75
2022/08/16 00:13:26;;;;;;;;;;;19.80;76.10;;;;;;5000534;28;20028;-74
2022/08/16 00:15:54;;;;;;;;;;;19.70;75.70;;;;;;5012099;28;19973;-75
2022/08/16 00:18:21;;;;;;;;;;;19.70;75.70;;;;;;5015736;28;19933;-75
2022/08/16 00:20:48;;;;;;;;;;;19.70;75.80;;;;;;5010058;28;19985;-77
2022/08/16 00:23:15;;;;;;;;;;;19.60;75.70;;;;;;5015212;28;19971;-74
2022/08/16 00:25:42;;;;;;;;;;;19.60;75.70;;;;;;5012154;28;19948;-74
2022/08/16 00:28:09;;;;;;;;;;;19.60;75.60;;;;;;5015827;28;20335;-76
2022/08/16 00:30:36;;;;;;;;;;;19.50;75.60;;;;;;4993026;28;20059;-75
2022/08/16 00:33:05;;;;;;;;;;;19.50;75.60;;;;;;4997743;28;20497;-75
2022/08/16 00:35:33;;;;;;;;;;;19.50;75.70;;;;;;5015509;28;19929;-74
2022/08/16 00:38:09;;;;;;;;;;;19.40;75.80;;;;;;5014152;28;19931;-75
2022/08/16 00:40:37;;;;;;;;;;;19.40;75.80;;;;;;4998538;28;19929;-77
2022/08/16 00:43:07;;;;;;;;;;;19.40;75.80;;;;;;5013653;28;19925;-78
2022/08/16 00:45:36;;;;;;;;;;;19.40;75.80;;;;;;5011661;28;19955;-74
2022/08/16 00:48:06;;;;;;;;;;;19.30;75.80;;;;;;5015364;28;19972;-75
2022/08/16 00:50:35;;;;;;;;;;;19.30;75.90;;;;;;4991242;28;19925;-75
2022/08/16 00:53:02;;;;;;;;;;;19.30;75.90;;;;;;4998770;28;19925;-75
2022/08/16 00:55:30;;;;;;;;;;;19.20;75.90;;;;;;4995265;28;19925;-78
2022/08/16 00:57:57;;;;;;;;;;;19.20;76.00;;;;;;4998508;28;20408;-74
2022/08/16 01:00:27;;;;;;;;;;;19.20;76.10;;;;;;5010198;28;19928;-74
2022/08/16 01:02:55;;;;;;;;;;;19.10;76.10;;;;;;5015463;28;19925;-75
2022/08/16 01:05:24;;;;;;;;;;;19.10;76.30;;;;;;4993828;28;19929;-77
2022/08/16 01:07:51;;;;;;;;;;;19.10;76.30;;;;;;5011834;28;19926;-77
2022/08/16 01:10:18;;;;;;;;;;;19.10;76.30;;;;;;5012303;28;19929;-77
2022/08/16 01:12:45;;;;;;;;;;;19.10;76.40;;;;;;4995665;28;19996;-74
2022/08/16 01:15:13;;;;;;;;;;;19.00;76.30;;;;;;5010216;28;19932;-75
2022/08/16 01:17:41;;;;;;;;;;;19.00;76.20;;;;;;5012857;28;19925;-76
2022/08/16 01:20:10;;;;;;;;;;;19.00;76.40;;;;;;5009349;28;19933;-76
2022/08/16 01:22:47;;;;;;;;;;;18.90;76.40;;;;;;4997021;28;19933;-75
2022/08/16 01:25:18;;;;;;;;;;;18.90;76.50;;;;;;4997657;28;19926;-76
2022/08/16 01:27:46;;;;;;;;;;;18.90;76.50;;;;;;5000764;28;19932;-74
2022/08/16 01:30:14;;;;;;;;;;;18.80;76.60;;;;;;5001724;28;20352;-76
2022/08/16 01:32:42;;;;;;;;;;;18.80;76.60;;;;;;4997195;28;19933;-77
2022/08/16 01:35:13;;;;;;;;;;;18.80;76.90;;;;;;4996289;28;19933;-74
2022/08/16 01:37:41;;;;;;;;;;;18.80;77.10;;;;;;4993749;28;19929;-75
2022/08/16 01:40:09;;;;;;;;;;;18.80;77.10;;;;;;5010707;28;19936;-75
2022/08/16 01:42:37;;;;;;;;;;;18.70;77.10;;;;;;4994999;28;19955;-76
2022/08/16 01:45:05;;;;;;;;;;;18.70;76.90;;;;;;4989995;28;21076;-76
2022/08/16 01:47:32;;;;;;;;;;;18.70;76.90;;;;;;4998927;28;20016;-74
2022/08/16 01:49:58;;;;;;;;;;;18.70;76.90;;;;;;4994280;28;19984;-76
2022/08/16 01:52:25;;;;;;;;;;;18.70;77.00;;;;;;4988500;28;20012;-75
2022/08/16 01:54:58;;;;;;;;;;;18.60;76.90;;;;;;4993686;28;19931;-75
2022/08/16 01:57:26;;;;;;;;;;;18.60;76.90;;;;;;4998238;28;19929;-76
2022/08/16 01:59:56;;;;;;;;;;;18.60;77.00;;;;;;4994041;28;19992;-75
2022/08/16 02:02:24;;;;;;;;;;;18.60;77.10;;;;;;4993035;28;20338;-77
2022/08/16 02:04:51;;;;;;;;;;;18.60;77.10;;;;;;4994662;28;19933;-78
2022/08/16 02:07:18;;;;;;;;;;;18.50;77.20;;;;;;4996782;28;19936;-76
2022/08/16 02:09:45;;;;;;;;;;;18.50;77.00;;;;;;5001062;28;20467;-75
2022/08/16 02:12:13;;;;;;;;;;;18.50;77.30;;;;;;5001512;28;19933;-74
2022/08/16 02:14:42;;;;;;;;;;;18.50;77.20;;;;;;4998303;28;20362;-75
2022/08/16 02:17:11;;;;;;;;;;;18.50;77.30;;;;;;5005964;28;19936;-76
2022/08/16 02:19:39;;;;;;;;;;;18.50;77.50;;;;;;4994610;28;20437;-74
2022/08/16 02:22:07;;;;;;;;;;;18.40;77.40;;;;;;4995234;28;19925;-74
2022/08/16 02:24:34;;;;;;;;;;;18.40;77.20;;;;;;4998124;28;20299;-76
2022/08/16 02:27:00;;;;;;;;;;;18.40;77.40;;;;;;5000452;28;20020;-74
2022/08/16 02:29:27;;;;;;;;;;;18.40;77.50;;;;;;5014906;28;19958;-76
2022/08/16 02:31:55;;;;;;;;;;;18.40;77.60;;;;;;5050851;23;20452;-76
2022/08/16 02:34:26;;;;;;;;;;;18.40;77.40;;;;;;5023588;28;19930;-74
2022/08/16 02:36:53;;;;;;;;;;;18.40;77.50;;;;;;5000272;28;20048;-78
2022/08/16 02:39:21;;;;;;;;;;;18.30;77.60;;;;;;4999589;28;19929;-76
2022/08/16 02:41:49;;;;;;;;;;;18.30;77.60;;;;;;4988718;28;19929;-76
2022/08/16 02:44:17;;;;;;;;;;;18.30;77.50;;;;;;4984416;28;19934;-75
2022/08/16 02:46:47;;;;;;;;;;;18.30;77.60;;;;;;4984475;28;19929;-74
2022/08/16 02:49:14;;;;;;;;;;;18.30;77.90;;;;;;5000897;28;19933;-75
2022/08/16 02:51:43;;;;;;;;;;;18.20;77.80;;;;;;5003724;28;19926;-74
2022/08/16 02:54:12;;;;;;;;;;;18.20;77.90;;;;;;4999194;28;19933;-76
2022/08/16 02:56:40;;;;;;;;;;;18.20;78.00;;;;;;5017900;28;20396;-75
2022/08/16 02:59:07;;;;;;;;;;;18.20;78.30;;;;;;5002822;28;19930;-76
2022/08/16 03:01:34;;;;;;;;;;;18.20;78.00;;;;;;5018022;28;20044;-78
2022/08/16 03:04:06;;;;;;;;;;;18.20;78.20;;;;;;5017990;28;19929;-78
2022/08/16 03:06:33;;;;;;;;;;;18.20;78.30;;;;;;5002639;28;19929;-75
2022/08/16 03:09:08;;;;;;;;;;;18.10;78.30;;;;;;4983832;28;19926;-76
2022/08/16 03:11:39;;;;;;;;;;;18.10;78.40;;;;;;5014512;28;19925;-74
2022/08/16 03:14:06;;;;;;;;;;;18.10;78.30;;;;;;4984551;28;19932;-74
2022/08/16 03:16:33;;;;;;;;;;;18.10;78.30;;;;;;4983440;28;19929;-75
2022/08/16 03:19:00;;;;;;;;;;;18.10;78.50;;;;;;4994449;28;20392;-76
2022/08/16 03:21:27;;;;;;;;;;;18.00;78.60;;;;;;5014957;28;19925;-76
2022/08/16 03:23:54;;;;;;;;;;;18.00;78.60;;;;;;4981524;28;20233;-76
2022/08/16 03:26:23;;;;;;;;;;;18.00;78.20;;;;;;4985714;28;19932;-75
2022/08/16 03:28:49;;;;;;;;;;;18.00;78.40;;;;;;4978684;28;20027;-74
2022/08/16 03:31:17;;;;;;;;;;;18.00;78.10;;;;;;5016771;28;20403;-75
2022/08/16 03:33:43;;;;;;;;;;;18.00;78.30;;;;;;4981989;28;20323;-75
2022/08/16 03:36:10;;;;;;;;;;;18.00;78.40;;;;;;4979067;28;19937;-77
2022/08/16 03:38:40;;;;;;;;;;;18.00;78.90;;;;;;4985507;28;19937;-76
2022/08/16 03:41:08;;;;;;;;;;;17.90;78.60;;;;;;5014584;28;19948;-77
2022/08/16 03:43:38;;;;;;;;;;;17.90;78.30;;;;;;5001757;28;20358;-74
2022/08/16 03:46:05;;;;;;;;;;;17.90;78.10;;;;;;5013787;28;19933;-77
2022/08/16 03:48:35;;;;;;;;;;;17.90;79.00;;;;;;4994981;28;20303;-75
2022/08/16 03:51:07;;;;;;;;;;;17.90;78.50;;;;;;5012769;28;20359;-76
2022/08/16 03:53:39;;;;;;;;;;;17.90;78.20;;;;;;5008621;28;20399;-75
2022/08/16 03:56:07;;;;;;;;;;;17.90;78.30;;;;;;4977025;28;19933;-76
2022/08/16 03:58:34;;;;;;;;;;;17.90;78.20;;;;;;5005466;28;20457;-74
2022/08/16 04:01:04;;;;;;;;;;;17.90;78.30;;;;;;4967708;28;19930;-74
2022/08/16 04:03:32;;;;;;;;;;;17.90;78.30;;;;;;4986071;28;19928;-74
2022/08/16 04:05:59;;;;;;;;;;;17.90;78.40;;;;;;4997994;28;19933;-74
2022/08/16 04:08:26;;;;;;;;;;;17.80;78.70;;;;;;4989315;28;19951;-74
2022/08/16 04:10:56;;;;;;;;;;;17.80;79.00;;;;;;4983582;28;20307;-75
2022/08/16 04:13:24;;;;;;;;;;;17.70;79.00;;;;;;5000691;28;20387;-74
2022/08/16 04:15:52;;;;;;;;;;;17.80;79.40;;;;;;4984968;28;19929;-73
2022/08/16 04:18:26;;;;;;;;;;;17.70;79.10;;;;;;5003610;28;20213;-74
2022/08/16 04:20:56;;;;;;;;;;;17.80;79.20;;;;;;5011284;28;20713;-75
2022/08/16 04:23:26;;;;;;;;;;;17.70;79.30;;;;;;4978523;28;19957;-74
2022/08/16 04:25:55;;;;;;;;;;;17.70;79.40;;;;;;4978964;28;20474;-74
2022/08/16 04:28:21;;;;;;;;;;;17.70;79.30;;;;;;5000403;28;19925;-75
2022/08/16 04:30:49;;;;;;;;;;;17.70;79.30;;;;;;4979858;28;20563;-74
2022/08/16 04:33:16;;;;;;;;;;;17.70;79.20;;;;;;5010572;28;19964;-75
2022/08/16 04:35:45;;;;;;;;;;;17.60;79.00;;;;;;5006489;28;19936;-74
2022/08/16 04:38:12;;;;;;;;;;;17.60;79.20;;;;;;4981127;28;20169;-73
2022/08/16 04:40:42;;;;;;;;;;;17.60;79.00;;;;;;4979110;28;19960;-77
2022/08/16 04:43:10;;;;;;;;;;;17.60;79.20;;;;;;4987824;28;19929;-76
2022/08/16 04:45:39;;;;;;;;;;;17.60;79.10;;;;;;5012728;28;20358;-74
2022/08/16 04:48:10;;;;;;;;;;;17.60;79.20;;;;;;4986758;28;19929;-76
2022/08/16 04:50:49;;;;;;;;;;;17.60;79.00;;;;;;4989462;28;19987;-77
2022/08/16 04:53:18;;;;;;;;;;;17.60;79.00;;;;;;5019534;28;19925;-75
2022/08/16 04:55:46;;;;;;;;;;;17.50;79.20;;;;;;5013342;28;19929;-74
2022/08/16 04:58:13;;;;;;;;;;;17.50;79.30;;;;;;5006162;28;19933;-76
2022/08/16 05:00:40;;;;;;;;;;;17.50;79.20;;;;;;5020789;28;19929;-74
2022/08/16 05:03:14;;;;;;;;;;;17.50;79.30;;;;;;4980855;28;20630;-76
2022/08/16 05:05:50;;;;;;;;;;;17.50;79.80;;;;;;4996937;28;19955;-74
2022/08/16 05:08:21;;;;;;;;;;;17.50;79.30;;;;;;4983657;28;19933;-75
2022/08/16 05:10:56;;;;;;;;;;;17.50;79.40;;;;;;4985955;28;19929;-74
2022/08/16 05:13:23;;;;;;;;;;;17.50;79.70;;;;;;5017834;28;19984;-73
2022/08/16 05:15:50;;;;;;;;;;;17.50;79.50;;;;;;4994068;28;19933;-74
2022/08/16 05:18:19;;;;;;;;;;;17.50;79.60;;;;;;5013781;28;19929;-76
2022/08/16 05:20:53;;;;;;;;;;;17.40;79.80;;;;;;4984839;28;19936;-78
2022/08/16 05:23:20;;;;;;;;;;;17.40;79.70;;;;;;4986812;28;19983;-74
2022/08/16 05:25:47;;;;;;;;;;;17.40;79.80;;;;;;5011440;28;19949;-76
2022/08/16 05:28:15;;;;;;;;;;;17.50;79.90;;;;;;4987804;28;19930;-74
2022/08/16 05:30:47;;;;;;;;;;;17.40;80.00;;;;;;4983862;28;20008;-75
2022/08/16 05:33:20;;;;;;;;;;;17.40;80.10;;;;;;4983323;28;19925;-76
2022/08/16 05:35:49;;;;;;;;;;;17.40;80.30;;;;;;4988271;28;19968;-75
2022/08/16 05:38:26;;;;;;;;;;;17.40;80.60;;;;;;4986531;28;19947;-77
2022/08/16 05:40:54;;;;;;;;;;;17.40;80.40;;;;;;4988017;28;19964;-77
2022/08/16 05:43:21;;;;;;;;;;;17.40;80.60;;;;;;5010112;28;20339;-75
2022/08/16 05:45:48;;;;;;;;;;;17.40;80.60;;;;;;4994761;28;20016;-74
2022/08/16 05:48:15;;;;;;;;;;;17.40;80.70;;;;;;5008847;28;20030;-74
2022/08/16 05:50:51;;;;;;;;;;;17.40;80.90;;;;;;5021674;28;19965;-74
2022/08/16 05:53:18;;;;;;;;;;;17.40;81.00;;;;;;4993568;28;19956;-75
2022/08/16 05:56:06;;;;;;;;;;;17.40;81.00;;;;;;4991300;28;20004;-76
2022/08/16 05:58:36;;;;;;;;;;;17.40;81.10;;;;;;4989350;28;20047;-76
2022/08/16 06:01:03;;;;;;;;;;;17.40;81.00;;;;;;4995121;28;19941;-74
2022/08/16 06:03:31;;;;;;;;;;;17.40;81.00;;;;;;5019538;28;19934;-75
2022/08/16 06:06:01;;;;;;;;;;;17.40;81.10;;;;;;4990691;28;19930;-75
2022/08/16 06:08:30;;;;;;;;;;;17.40;81.20;;;;;;4991285;28;19925;-75
2022/08/16 06:10:57;;;;;;;;;;;17.40;81.20;;;;;;5022676;28;19926;-76
2022/08/16 06:13:25;;;;;;;;;;;17.40;81.40;;;;;;5019979;28;19926;-75
2022/08/16 06:15:53;;;;;;;;;;;17.50;81.40;;;;;;4991980;28;19975;-74
2022/08/16 06:18:20;;;;;;;;;;;17.50;81.70;;;;;;4991761;28;19980;-74
2022/08/16 06:20:48;;;;;;;;;;;17.50;81.60;;;;;;4987361;28;20008;-74
2022/08/16 06:23:19;;;;;;;;;;;17.50;81.50;;;;;;4992448;28;19932;-76
2022/08/16 06:25:56;;;;;;;;;;;17.50;81.20;;;;;;4990676;28;20387;-75
2022/08/16 06:28:26;;;;;;;;;;;17.50;81.10;;;;;;4996155;28;19957;-75
2022/08/16 06:30:53;;;;;;;;;;;17.50;82.30;;;;;;4991546;28;20399;-76
2022/08/16 06:33:21;;;;;;;;;;;17.60;83.00;;;;;;4982483;28;19972;-76
2022/08/16 06:35:48;;;;;;;;;;;17.60;82.30;;;;;;4989733;28;20372;-75
2022/08/16 06:38:15;;;;;;;;;;;17.60;82.00;;;;;;4981961;28;19933;-76
2022/08/16 06:40:43;;;;;;;;;;;17.60;81.90;;;;;;5005727;28;20233;-76
2022/08/16 06:43:10;;;;;;;;;;;17.60;81.70;;;;;;4983834;28;19933;-75
2022/08/16 06:45:48;;;;;;;;;;;17.70;81.90;;;;;;4985316;28;19929;-74
2022/08/16 06:48:21;;;;;;;;;;;17.70;82.50;;;;;;4987611;28;19925;-75
2022/08/16 06:50:51;;;;;;;;;;;17.70;81.90;;;;;;4985060;28;20485;-75
2022/08/16 06:53:18;;;;;;;;;;;17.70;81.80;;;;;;4989185;28;19960;-75
2022/08/16 06:55:59;;;;;;;;;;;17.70;81.60;;;;;;4985870;28;19926;-76
2022/08/16 06:58:36;;;;;;;;;;;17.70;81.70;;;;;;4986841;28;19930;-75
2022/08/16 07:01:10;;;;;;;;;;;17.80;82.00;;;;;;5019229;28;19934;-74
2022/08/16 07:03:38;;;;;;;;;;;17.80;81.90;;;;;;4978080;28;19965;-78
2022/08/16 07:06:07;;;;;;;;;;;17.80;81.80;;;;;;4979004;28;20015;-76
2022/08/16 07:08:39;;;;;;;;;;;17.90;81.80;;;;;;5000165;28;20548;-76
2022/08/16 07:11:06;;;;;;;;;;;17.90;82.30;;;;;;4987383;28;19949;-75
2022/08/16 07:13:34;;;;;;;;;;;18.00;81.80;;;;;;4994776;28;20383;-76
2022/08/16 07:16:02;;;;;;;;;;;18.00;81.40;;;;;;4980181;28;20998;-76
2022/08/16 07:18:31;;;;;;;;;;;18.00;81.00;;;;;;5010931;28;19930;-75
2022/08/16 07:23:26;;;;;;;;;;;18.10;80.90;;;;;;5005197;23;19934;-77
2022/08/16 07:25:57;;;;;;;;;;;18.10;80.90;;;;;;4940987;28;20412;-76
2022/08/16 07:28:24;;;;;;;;;;;18.10;80.90;;;;;;4942325;28;20012;-76
2022/08/16 07:30:53;;;;;;;;;;;18.20;80.90;;;;;;4944181;28;20408;-75
2022/08/16 07:33:33;;;;;;;;;;;18.20;81.00;;;;;;4959175;28;19940;-76
2022/08/16 07:36:00;;;;;;;;;;;18.20;81.00;;;;;;4947870;28;19929;-76
2022/08/16 07:38:28;;;;;;;;;;;18.20;81.30;;;;;;4944002;28;19927;-75
2022/08/16 07:40:56;;;;;;;;;;;18.20;81.20;;;;;;4952891;28;19970;-75
2022/08/16 07:43:24;;;;;;;;;;;18.20;81.00;;;;;;4957367;28;19934;-75
2022/08/16 07:45:51;;;;;;;;;;;18.20;81.00;;;;;;4971266;28;19934;-76
2022/08/16 07:48:20;;;;;;;;;;;18.20;81.10;;;;;;4941592;28;19926;-75
2022/08/16 07:50:54;;;;;;;;;;;18.20;81.20;;;;;;4941901;28;19933;-74
2022/08/16 07:53:21;;;;;;;;;;;18.30;83.20;;;;;;4940398;28;20032;-75
2022/08/16 07:55:49;;;;;;;;;;;18.40;88.20;;;;;;4942665;28;19934;-76
2022/08/16 07:58:25;;;;;;;;;;;18.50;89.40;;;;;;4955988;28;20304;-76
2022/08/16 08:00:52;;;;;;;;;;;18.60;90.50;;;;;;4945937;28;20279;-74
2022/08/16 08:03:18;;;;;;;;;;;18.70;90.30;;;;;;4956558;28;19934;-79
2022/08/16 08:05:46;;;;;;;;;;;18.70;90.60;;;;;;4937646;28;19941;-76
2022/08/16 08:08:14;;;;;;;;;;;18.80;90.90;;;;;;4942896;28;20389;-76
2022/08/16 08:10:41;;;;;;;;;;;18.90;90.60;;;;;;4946174;28;19926;-76
2022/08/16 08:13:08;;;;;;;;;;;18.80;90.10;;;;;;4964576;28;19934;-78
2022/08/16 08:15:36;;;;;;;;;;;18.70;89.40;;;;;;4951495;28;20016;-76
2022/08/16 08:18:02;;;;;;;;;;;18.70;88.80;;;;;;4953400;28;20721;-76
2022/08/16 08:20:33;;;;;;;;;;;18.70;88.20;;;;;;4955583;28;19926;-76
2022/08/16 08:23:01;;;;;;;;;;;18.70;87.70;;;;;;4977927;28;19938;-76
2022/08/16 08:25:34;;;;;;;;;;;18.60;87.30;;;;;;4952639;28;19933;-76
2022/08/16 08:28:02;;;;;;;;;;;18.60;87.00;;;;;;4949613;28;20578;-76
2022/08/16 08:30:29;;;;;;;;;;;18.60;86.80;;;;;;4946232;28;20451;-79
2022/08/16 08:32:56;;;;;;;;;;;18.60;86.50;;;;;;4959873;28;19934;-76
2022/08/16 08:35:23;;;;;;;;;;;18.60;86.40;;;;;;4952074;28;19926;-75
2022/08/16 08:37:50;;;;;;;;;;;18.60;86.20;;;;;;4952243;28;19977;-78
2022/08/16 08:40:17;;;;;;;;;;;18.60;86.00;;;;;;4945194;28;19926;-76
2022/08/16 08:42:46;;;;;;;;;;;18.60;86.00;;;;;;4950633;28;20001;-76
2022/08/16 08:45:14;;;;;;;;;;;18.60;86.00;;;;;;4967569;28;19926;-75
2022/08/16 08:47:45;;;;;;;;;;;18.70;86.10;;;;;;4949136;28;19930;-77
2022/08/16 08:50:13;;;;;;;;;;;18.70;85.80;;;;;;4978961;28;19926;-76
2022/08/16 08:52:40;;;;;;;;;;;18.60;85.70;;;;;;4949407;28;21332;-77
2022/08/16 08:55:09;;;;;;;;;;;18.70;85.70;;;;;;4949082;28;19930;-76
2022/08/16 08:57:36;;;;;;;;;;;18.70;86.00;;;;;;4949968;28;19929;-76
2022/08/16 09:00:22;;;;;;;;;;;18.70;85.90;;;;;;4949659;28;20404;-76
2022/08/16 09:02:51;;;;;;;;;;;18.70;85.80;;;;;;4979789;28;19926;-76
2022/08/16 09:05:24;;;;;;;;;;;18.70;85.70;;;;;;4950358;28;19949;-79
2022/08/16 09:07:52;;;;;;;;;;;18.70;85.60;;;;;;4947412;28;19932;-75
2022/08/16 09:10:21;;;;;;;;;;;18.70;85.30;;;;;;4952646;28;19926;-78
2022/08/16 09:12:49;;;;;;;;;;;18.80;85.60;;;;;;4963327;28;20397;-75
2022/08/16 09:15:22;;;;;;;;;;;18.80;85.50;;;;;;4950294;28;20423;-77
2022/08/16 09:17:54;;;;;;;;;;;18.80;85.40;;;;;;4958634;28;19930;-76
2022/08/16 09:20:24;;;;;;;;;;;18.80;85.20;;;;;;4983226;28;20045;-75
2022/08/16 09:22:51;;;;;;;;;;;18.80;85.00;;;;;;4975628;28;20450;-75
2022/08/16 09:25:18;;;;;;;;;;;18.80;84.80;;;;;;4988459;28;20064;-75
2022/08/16 09:27:45;;;;;;;;;;;18.90;84.90;;;;;;4970293;28;19926;-75
2022/08/16 09:30:12;;;;;;;;;;;18.90;84.80;;;;;;4952138;28;19965;-79
2022/08/16 09:32:40;;;;;;;;;;;18.90;84.70;;;;;;4974446;28;19934;-76
2022/08/16 09:35:07;;;;;;;;;;;18.90;84.60;;;;;;4959303;28;19930;-75
2022/08/16 09:37:35;;;;;;;;;;;18.90;84.70;;;;;;4971254;28;19937;-75
2022/08/16 09:40:03;;;;;;;;;;;18.90;84.70;;;;;;4976135;28;19927;-75
2022/08/16 09:42:30;;;;;;;;;;;18.90;84.60;;;;;;4972277;28;20178;-77
2022/08/16 09:44:57;;;;;;;;;;;18.90;84.50;;;;;;4970855;28;19969;-76
2022/08/16 09:47:24;;;;;;;;;;;19.00;84.70;;;;;;4970974;28;20315;-75
2022/08/16 09:49:52;;;;;;;;;;;19.00;84.50;;;;;;4953738;28;19974;-75
2022/08/16 09:52:19;;;;;;;;;;;19.00;84.50;;;;;;4974970;28;19976;-75
2022/08/16 09:54:45;;;;;;;;;;;19.10;84.70;;;;;;4957513;28;19969;-77
2022/08/16 09:57:12;;;;;;;;;;;19.10;84.50;;;;;;4975661;28;20464;-79
2022/08/16 09:59:39;;;;;;;;;;;19.10;84.40;;;;;;4978010;28;20013;-75
2022/08/16 10:02:06;;;;;;;;;;;19.10;84.40;;;;;;4955942;28;20388;-75
2022/08/16 10:04:33;;;;;;;;;;;19.10;84.40;;;;;;4951038;28;19953;-75
2022/08/16 10:07:02;;;;;;;;;;;19.10;84.30;;;;;;4948154;28;20058;-76
2022/08/16 10:09:29;;;;;;;;;;;19.10;84.30;;;;;;4978568;28;19926;-77
2022/08/16 10:14:40;;;;;;;;;;;19.20;84.90;;;;;;4967453;28;19926;-75
2022/08/16 10:17:09;;;;;;;;;;;19.20;84.10;;;;;;4972493;28;19931;-76
2022/08/16 10:19:36;;;;;;;;;;;19.20;84.00;;;;;;4977808;28;19926;-75
2022/08/16 10:22:04;;;;;;;;;;;19.20;84.00;;;;;;4976772;28;19930;-76
2022/08/16 10:24:31;;;;;;;;;;;19.30;84.00;;;;;;4956699;28;20348;-76
2022/08/16 10:26:58;;;;;;;;;;;19.30;84.60;;;;;;4976208;28;19968;-75
2022/08/16 10:29:25;;;;;;;;;;;19.30;83.90;;;;;;4968206;28;19973;-75
2022/08/16 10:31:51;;;;;;;;;;;19.30;83.80;;;;;;4954206;28;19941;-76
2022/08/16 10:34:18;;;;;;;;;;;19.40;83.80;;;;;;4967360;28;20303;-76
2022/08/16 10:36:45;;;;;;;;;;;19.40;83.70;;;;;;4975426;28;19933;-76
2022/08/16 10:39:13;;;;;;;;;;;19.40;83.70;;;;;;4969695;28;20442;-75
2022/08/16 10:41:40;;;;;;;;;;;19.40;83.60;;;;;;4969976;28;19973;-75
2022/08/16 10:44:07;;;;;;;;;;;19.40;83.60;;;;;;4950117;28;20633;-77
2022/08/16 10:46:34;;;;;;;;;;;19.40;83.40;;;;;;4952819;28;19972;-76
2022/08/16 10:51:38;;;;;;;;;;;19.50;83.50;;;;;;5416424;22;19929;-76
2022/08/16 10:54:05;;;;;;;;;;;19.50;83.40;;;;;;5009535;28;20277;-76
2022/08/16 10:56:33;;;;;;;;;;;19.50;83.40;;;;;;4989732;28;20283;-75
2022/08/16 10:59:00;;;;;;;;;;;19.50;83.40;;;;;;5007025;28;19953;-75
2022/08/16 11:01:27;;;;;;;;;;;19.50;83.30;;;;;;4980247;28;19929;-75
2022/08/16 11:03:54;;;;;;;;;;;19.60;83.40;;;;;;5009667;28;19929;-75
2022/08/16 11:06:21;;;;;;;;;;;19.60;83.30;;;;;;5017730;28;19929;-75
2022/08/16 11:08:48;;;;;;;;;;;19.60;83.30;;;;;;4978681;28;19929;-75
2022/08/16 11:11:15;;;;;;;;;;;19.60;83.10;;;;;;5068992;23;19925;-75
2022/08/16 11:13:47;;;;;;;;;;;19.70;83.30;;;;;;4984010;28;20237;-77
2022/08/16 11:16:14;;;;;;;;;;;19.70;83.10;;;;;;4985231;28;19936;-76
2022/08/16 11:18:41;;;;;;;;;;;19.70;83.30;;;;;;4988110;28;19934;-75
2022/08/16 11:21:08;;;;;;;;;;;19.70;83.30;;;;;;4960030;28;19926;-74
2022/08/16 11:23:35;;;;;;;;;;;19.80;83.30;;;;;;4988044;28;19925;-76
2022/08/16 11:26:02;;;;;;;;;;;19.80;83.10;;;;;;4988668;28;19933;-76
2022/08/16 11:28:29;;;;;;;;;;;19.80;83.20;;;;;;4983047;28;19926;-76
2022/08/16 11:30:58;;;;;;;;;;;19.80;82.80;;;;;;4991545;28;19948;-75
2022/08/16 11:33:25;;;;;;;;;;;19.90;82.90;;;;;;4991311;22;19933;-75
2022/08/16 11:35:51;;;;;;;;;;;19.90;82.80;;;;;;4991223;28;19999;-76
2022/08/16 11:38:20;;;;;;;;;;;19.90;83.40;;;;;;5004627;28;19925;-76
2022/08/16 11:40:49;;;;;;;;;;;20.00;82.90;;;;;;4999748;28;20210;-76
2022/08/16 11:43:17;;;;;;;;;;;20.00;82.90;;;;;;5004856;28;19976;-77
2022/08/16 11:45:45;;;;;;;;;;;20.00;83.00;;;;;;5000648;28;20379;-74
2022/08/16 11:48:13;;;;;;;;;;;20.10;83.00;;;;;;5008289;28;19980;-75
2022/08/16 11:50:41;;;;;;;;;;;20.10;82.90;;;;;;4979519;28;19958;-75
2022/08/16 11:53:07;;;;;;;;;;;20.10;82.90;;;;;;4989844;28;19926;-75
2022/08/16 11:58:02;;;;;;;;;;;20.20;82.90;;;;;;4957627;28;19933;-75
2022/08/16 12:00:30;;;;;;;;;;;20.20;82.80;;;;;;4952496;28;20428;-75
2022/08/16 12:02:57;;;;;;;;;;;20.30;82.80;;;;;;4952265;28;19953;-75
2022/08/16 12:05:25;;;;;;;;;;;20.30;83.00;;;;;;4966762;28;20304;-75
2022/08/16 12:10:19;;;;;;;;;;;20.40;83.10;;;;;;4998637;23;19933;-76
2022/08/16 12:12:46;;;;;;;;;;;20.40;83.00;;;;;;4984118;28;19973;-78
2022/08/16 12:15:14;;;;;;;;;;;20.40;82.80;;;;;;4990631;28;19979;-76
2022/08/16 12:17:42;;;;;;;;;;;20.50;83.00;;;;;;4999413;23;20027;-76
2022/08/16 12:20:09;;;;;;;;;;;20.50;82.80;;;;;;5005931;28;19976;-75
2022/08/16 12:22:41;;;;;;;;;;;20.60;82.90;;;;;;5006806;28;19972;-75
2022/08/16 12:25:10;;;;;;;;;;;20.60;82.80;;;;;;5008844;28;20339;-75
2022/08/16 12:27:37;;;;;;;;;;;20.70;82.80;;;;;;5000074;28;19999;-75
2022/08/16 12:30:05;;;;;;;;;;;20.80;82.80;;;;;;5010665;28;19929;-75
2022/08/16 12:32:32;;;;;;;;;;;20.80;82.30;;;;;;5010480;28;20272;-75
2022/08/16 12:35:00;;;;;;;;;;;20.90;82.30;;;;;;5003523;28;19955;-75
2022/08/16 12:37:27;;;;;;;;;;;20.90;82.10;;;;;;5005674;28;20016;-75
2022/08/16 12:39:56;;;;;;;;;;;21.00;82.00;;;;;;5003431;28;19929;-75
2022/08/16 12:42:23;;;;;;;;;;;21.00;82.20;;;;;;4985295;28;19949;-75
2022/08/16 12:44:50;;;;;;;;;;;21.10;82.20;;;;;;5007607;28;20511;-76
2022/08/16 12:50:01;;;;;;;;;;;21.20;82.10;;;;;;5007534;28;19922;-75
2022/08/16 12:52:29;;;;;;;;;;;21.20;82.20;;;;;;4998965;28;20024;-76
2022/08/16 12:54:57;;;;;;;;;;;21.20;82.20;;;;;;5006771;28;20407;-77
2022/08/16 12:57:24;;;;;;;;;;;21.30;81.90;;;;;;5006475;28;20546;-76
2022/08/16 12:59:51;;;;;;;;;;;21.30;81.90;;;;;;5008186;28;19925;-78
2022/08/16 13:02:20;;;;;;;;;;;21.30;81.70;;;;;;4989034;28;19937;-76
2022/08/16 13:04:47;;;;;;;;;;;21.40;81.70;;;;;;5008046;28;19932;-78
2022/08/16 13:07:14;;;;;;;;;;;21.40;81.80;;;;;;5005123;28;20020;-76
2022/08/16 13:09:50;;;;;;;;;;;21.50;81.80;;;;;;5009966;28;19983;-77
2022/08/16 13:12:22;;;;;;;;;;;21.50;81.90;;;;;;5002793;28;20358;-77
2022/08/16 13:14:49;;;;;;;;;;;21.60;81.80;;;;;;5006995;28;19930;-76
2022/08/16 13:17:18;;;;;;;;;;;21.50;81.70;;;;;;5002504;28;19925;-77
2022/08/16 13:19:45;;;;;;;;;;;21.60;81.90;;;;;;5003940;28;19960;-76
2022/08/16 13:22:12;;;;;;;;;;;21.60;81.70;;;;;;5003640;28;19929;-77
2022/08/16 13:24:39;;;;;;;;;;;21.70;81.80;;;;;;5008935;28;19929;-79
2022/08/16 13:27:06;;;;;;;;;;;21.70;81.70;;;;;;4999814;28;19933;-77
2022/08/16 13:29:34;;;;;;;;;;;21.80;81.80;;;;;;5008056;28;19926;-78
2022/08/16 13:32:01;;;;;;;;;;;21.80;81.70;;;;;;5005244;28;19933;-77
2022/08/16 13:34:28;;;;;;;;;;;21.90;81.40;;;;;;5008435;28;20380;-78
2022/08/16 13:36:55;;;;;;;;;;;21.90;81.50;;;;;;4989001;28;19976;-78
2022/08/16 13:39:24;;;;;;;;;;;22.00;81.50;;;;;;4988783;28;20389;-79
2022/08/16 13:41:50;;;;;;;;;;;22.00;81.40;;;;;;5019692;28;19929;-79
2022/08/16 13:44:18;;;;;;;;;;;22.10;81.50;;;;;;4991890;28;19929;-77
2022/08/16 13:46:46;;;;;;;;;;;22.10;81.50;;;;;;5004034;28;19926;-77
2022/08/16 13:49:13;;;;;;;;;;;22.10;81.50;;;;;;5006391;28;19930;-80
2022/08/16 13:51:40;;;;;;;;;;;22.20;81.60;;;;;;5004484;28;20323;-77
2022/08/16 13:54:07;;;;;;;;;;;22.20;81.60;;;;;;5004502;28;19929;-78
2022/08/16 13:56:35;;;;;;;;;;;22.30;81.20;;;;;;4999209;28;19926;-79
2022/08/16 13:59:02;;;;;;;;;;;22.30;80.80;;;;;;5007968;28;20367;-77
2022/08/16 14:01:28;;;;;;;;;;;22.30;80.50;;;;;;5006994;28;19948;-79
2022/08/16 14:03:57;;;;;;;;;;;22.30;80.60;;;;;;5007273;28;19952;-78
2022/08/16 14:06:23;;;;;;;;;;;22.40;80.50;;;;;;5006344;28;19963;-76
2022/08/16 14:08:50;;;;;;;;;;;22.50;80.40;;;;;;5007247;28;19925;-78
2022/08/16 14:11:17;;;;;;;;;;;22.50;80.50;;;;;;5005186;28;20285;-78
2022/08/16 14:13:45;;;;;;;;;;;22.50;80.40;;;;;;5005035;28;19976;-78
2022/08/16 14:16:12;;;;;;;;;;;22.50;80.50;;;;;;4993443;28;19925;-77
2022/08/16 14:18:39;;;;;;;;;;;22.60;80.60;;;;;;5010536;28;20292;-78
2022/08/16 14:21:07;;;;;;;;;;;22.60;80.70;;;;;;5013074;28;20451;-78
2022/08/16 14:23:34;;;;;;;;;;;22.70;80.60;;;;;;4994806;28;19934;-80
2022/08/16 14:26:02;;;;;;;;;;;22.70;80.40;;;;;;5008449;28;19930;-78
2022/08/16 14:28:29;;;;;;;;;;;22.80;80.50;;;;;;5010193;28;19925;-78
2022/08/16 14:30:56;;;;;;;;;;;22.80;80.30;;;;;;5004215;28;19965;-78
2022/08/16 14:33:23;;;;;;;;;;;22.80;80.10;;;;;;5011319;28;20444;-77
2022/08/16 14:35:50;;;;;;;;;;;22.90;79.90;;;;;;5005791;28;19980;-78
2022/08/16 14:38:20;;;;;;;;;;;22.90;80.00;;;;;;5009293;28;20284;-78